Time;durP1;ratioP1;P1;durP2;ratioP2;P2;SDS_P1;SDS_P2;PMS_P1;PMS_P2;Temp;Humidity;BMP_temperature;BMP_pressure;BME280_temperature;BME280_humidity;BME280_pressure;Samples;Min_cycle;Max_cycle;Signal;HPM_P1;HPM_P2
2023/04/30 00:00:27;;;;;;;7.15;6.55;;;;;;;;;;5059933;28;20465;-80
2023/04/30 00:02:54;;;;;;;7.13;6.33;;;;;;;;;;5056434;28;20777;-80
2023/04/30 00:05:20;;;;;;;7.43;6.82;;;;;;;;;;5059605;28;20424;-79
2023/04/30 00:07:46;;;;;;;7.00;6.40;;;;;;;;;;5064641;28;20780;-79
2023/04/30 00:10:12;;;;;;;6.88;6.30;;;;;;;;;;5053848;28;20417;-79
2023/04/30 00:12:38;;;;;;;7.40;6.70;;;;;;;;;;5062634;28;20438;-79
2023/04/30 00:15:04;;;;;;;7.90;7.20;;;;;;;;;;5056279;28;20500;-80
2023/04/30 00:17:30;;;;;;;7.35;6.75;;;;;;;;;;5058007;28;20900;-81
2023/04/30 00:19:56;;;;;;;6.88;6.28;;;;;;;;;;5061621;28;20385;-80
2023/04/30 00:22:22;;;;;;;7.10;6.60;;;;;;;;;;5070970;28;20387;-80
2023/04/30 00:24:48;;;;;;;7.30;6.70;;;;;;;;;;5068247;28;20379;-80
2023/04/30 00:27:14;;;;;;;6.93;6.43;;;;;;;;;;5079317;22;20455;-83
2023/04/30 00:29:40;;;;;;;7.60;7.00;;;;;;;;;;5060122;28;20375;-84
2023/04/30 00:32:06;;;;;;;8.00;7.30;;;;;;;;;;5066100;28;20664;-83
2023/04/30 00:34:32;;;;;;;7.63;7.03;;;;;;;;;;5068739;28;20450;-83
2023/04/30 00:36:58;;;;;;;7.45;6.82;;;;;;;;;;5074211;28;20376;-83
2023/04/30 00:39:24;;;;;;;7.20;6.60;;;;;;;;;;5073988;28;20372;-83
2023/04/30 00:41:50;;;;;;;7.68;7.03;;;;;;;;;;5074183;28;20387;-83
2023/04/30 00:44:16;;;;;;;7.75;7.05;;;;;;;;;;5069054;28;20744;-83
2023/04/30 00:46:42;;;;;;;7.72;7.13;;;;;;;;;;5074080;28;20459;-83
2023/04/30 00:49:08;;;;;;;7.77;7.17;;;;;;;;;;5073939;28;20386;-83
2023/04/30 00:51:34;;;;;;;7.70;7.10;;;;;;;;;;5074237;28;20407;-83
2023/04/30 00:54:01;;;;;;;7.50;6.90;;;;;;;;;;5073977;28;20388;-83
2023/04/30 00:56:29;;;;;;;7.68;6.97;;;;;;;;;;5073724;28;20376;-83
2023/04/30 00:58:56;;;;;;;7.55;6.95;;;;;;;;;;5073666;28;20387;-83
2023/04/30 01:01:24;;;;;;;7.27;6.67;;;;;;;;;;5073509;28;20383;-83
2023/04/30 01:03:50;;;;;;;7.88;7.18;;;;;;;;;;5073779;28;20405;-83
2023/04/30 01:06:16;;;;;;;7.60;7.00;;;;;;;;;;5073179;28;20398;-83
2023/04/30 01:08:42;;;;;;;7.45;6.85;;;;;;;;;;5072844;28;20384;-83
2023/04/30 01:11:23;;;;;;;7.10;6.50;;;;;;;;;;5073582;28;20430;-83
2023/04/30 01:14:07;;;;;;;7.00;6.40;;;;;;;;;;5064213;28;20372;-83
2023/04/30 01:16:35;;;;;;;7.03;6.45;;;;;;;;;;5072733;28;20459;-83
2023/04/30 01:19:05;;;;;;;6.93;6.43;;;;;;;;;;5073259;28;20455;-83
2023/04/30 01:21:32;;;;;;;7.60;6.97;;;;;;;;;;5072758;28;20380;-83
2023/04/30 01:24:17;;;;;;;8.32;6.85;;;;;;;;;;5072711;28;20737;-82
2023/04/30 01:26:52;;;;;;;7.90;7.20;;;;;;;;;;5070144;28;20418;-83
2023/04/30 01:29:19;;;;;;;7.18;6.68;;;;;;;;;;5073323;28;20387;-83
2023/04/30 01:31:45;;;;;;;6.85;6.25;;;;;;;;;;5073208;28;20399;-83
2023/04/30 01:34:11;;;;;;;6.63;6.13;;;;;;;;;;5073251;28;20447;-83
2023/04/30 01:36:37;;;;;;;7.57;6.97;;;;;;;;;;5073153;28;20376;-83
2023/04/30 01:39:15;;;;;;;7.45;6.85;;;;;;;;;;5073035;28;20383;-83
2023/04/30 01:42:00;;;;;;;7.88;7.18;;;;;;;;;;5073108;28;20379;-83
2023/04/30 01:44:45;;;;;;;7.30;6.70;;;;;;;;;;5058754;28;20384;-83
2023/04/30 01:47:17;;;;;;;7.05;6.45;;;;;;;;;;5072782;28;20748;-83
2023/04/30 01:50:02;;;;;;;6.97;6.38;;;;;;;;;;5072905;28;20379;-83
2023/04/30 01:52:42;;;;;;;7.60;6.90;;;;;;;;;;5072482;28;20476;-83
2023/04/30 01:55:11;;;;;;;7.13;6.63;;;;;;;;;;5072731;28;20408;-83
2023/04/30 01:57:39;;;;;;;7.27;6.67;;;;;;;;;;5072403;28;20411;-83
2023/04/30 02:00:07;;;;;;;7.47;6.82;;;;;;;;;;5062315;28;20498;-83
2023/04/30 02:02:33;;;;;;;7.10;6.50;;;;;;;;;;5072626;28;20433;-83
2023/04/30 02:04:59;;;;;;;6.70;6.20;;;;;;;;;;5072281;28;20458;-83
2023/04/30 02:07:37;;;;;;;7.30;6.70;;;;;;;;;;5072455;28;20422;-81
2023/04/30 02:10:03;;;;;;;7.93;7.13;;;;;;;;;;5072780;28;20762;-82
2023/04/30 02:12:29;;;;;;;7.05;6.45;;;;;;;;;;5072456;28;20975;-81
2023/04/30 02:14:55;;;;;;;7.05;6.45;;;;;;;;;;5066089;28;20383;-82
2023/04/30 02:17:21;;;;;;;7.35;6.75;;;;;;;;;;5071990;28;20372;-82
2023/04/30 02:19:47;;;;;;;7.05;6.55;;;;;;;;;;5071901;28;20391;-81
2023/04/30 02:22:13;;;;;;;7.35;6.85;;;;;;;;;;5071949;28;20390;-82
2023/04/30 02:24:39;;;;;;;7.22;6.60;;;;;;;;;;5071739;28;20914;-81
2023/04/30 02:27:05;;;;;;;6.75;6.20;;;;;;;;;;5070685;28;20415;-81
2023/04/30 02:29:31;;;;;;;7.70;7.00;;;;;;;;;;5072002;28;20379;-82
2023/04/30 02:31:58;;;;;;;8.40;7.60;;;;;;;;;;5071996;28;20478;-82
2023/04/30 02:34:24;;;;;;;7.75;7.13;;;;;;;;;;5072174;28;20735;-82
2023/04/30 02:36:51;;;;;;;7.30;6.70;;;;;;;;;;5071897;28;20450;-82
2023/04/30 02:39:17;;;;;;;6.85;6.35;;;;;;;;;;5071989;28;20883;-82
2023/04/30 02:41:43;;;;;;;7.15;6.55;;;;;;;;;;5071948;28;20379;-82
2023/04/30 02:44:09;;;;;;;7.22;6.63;;;;;;;;;;5071791;28;20555;-81
2023/04/30 02:46:35;;;;;;;7.15;6.63;;;;;;;;;;5071791;28;20947;-81
2023/04/30 02:49:01;;;;;;;7.47;6.78;;;;;;;;;;5071708;28;20772;-81
2023/04/30 02:51:27;;;;;;;7.03;6.53;;;;;;;;;;5071652;28;20403;-81
2023/04/30 02:53:53;;;;;;;7.38;6.78;;;;;;;;;;5071587;28;20409;-82
2023/04/30 02:56:20;;;;;;;7.13;6.60;;;;;;;;;;5071681;28;20384;-82
2023/04/30 02:58:46;;;;;;;6.38;5.88;;;;;;;;;;5071723;28;20444;-82
2023/04/30 03:01:12;;;;;;;7.07;6.40;;;;;;;;;;5068527;28;20873;-82
2023/04/30 03:03:38;;;;;;;7.28;6.68;;;;;;;;;;5064703;28;20384;-81
2023/04/30 03:06:04;;;;;;;6.70;6.20;;;;;;;;;;5071089;28;20446;-81
2023/04/30 03:08:30;;;;;;;6.25;5.72;;;;;;;;;;5071582;28;20376;-81
2023/04/30 03:10:56;;;;;;;6.53;5.95;;;;;;;;;;5069946;28;20410;-82
2023/04/30 03:13:24;;;;;;;6.60;6.10;;;;;;;;;;5071465;28;20402;-81
2023/04/30 03:15:56;;;;;;;6.30;5.80;;;;;;;;;;5070397;28;20372;-82
2023/04/30 03:18:22;;;;;;;5.77;5.30;;;;;;;;;;5071192;28;20480;-81
2023/04/30 03:20:48;;;;;;;6.47;5.97;;;;;;;;;;5070937;28;20394;-81
2023/04/30 03:23:13;;;;;;;6.10;5.60;;;;;;;;;;5071015;28;20383;-81
2023/04/30 03:25:39;;;;;;;6.00;5.50;;;;;;;;;;5070850;28;20768;-82
2023/04/30 03:28:05;;;;;;;6.67;6.17;;;;;;;;;;5067449;28;20391;-81
2023/04/30 03:30:31;;;;;;;6.80;6.30;;;;;;;;;;5069865;28;20927;-81
2023/04/30 03:32:57;;;;;;;6.75;6.20;;;;;;;;;;5071095;28;20372;-81
2023/04/30 03:35:24;;;;;;;7.05;6.50;;;;;;;;;;5071003;28;20719;-81
2023/04/30 03:37:50;;;;;;;6.82;6.30;;;;;;;;;;5070869;28;20451;-81
2023/04/30 03:40:16;;;;;;;6.75;6.18;;;;;;;;;;5071015;28;20386;-81
2023/04/30 03:42:42;;;;;;;6.97;6.37;;;;;;;;;;5071104;28;20376;-81
2023/04/30 03:45:08;;;;;;;6.40;5.90;;;;;;;;;;5069709;28;20793;-81
2023/04/30 03:47:35;;;;;;;6.80;6.30;;;;;;;;;;5070952;28;20505;-82
2023/04/30 03:50:02;;;;;;;6.55;6.00;;;;;;;;;;5071016;28;20399;-84
2023/04/30 03:52:29;;;;;;;7.28;6.65;;;;;;;;;;5070537;28;20877;-81
2023/04/30 03:54:55;;;;;;;6.72;6.22;;;;;;;;;;5070439;28;20376;-82
2023/04/30 03:57:21;;;;;;;6.67;6.17;;;;;;;;;;5070696;28;20949;-82
2023/04/30 03:59:47;;;;;;;7.10;6.40;;;;;;;;;;5070914;28;20501;-82
2023/04/30 04:02:13;;;;;;;7.28;6.72;;;;;;;;;;5070280;28;20390;-81
2023/04/30 04:04:39;;;;;;;7.77;7.07;;;;;;;;;;5070702;28;20462;-82
2023/04/30 04:07:06;;;;;;;6.63;6.13;;;;;;;;;;5070748;28;20402;-82
2023/04/30 04:09:32;;;;;;;7.25;6.65;;;;;;;;;;5070725;28;20737;-82
2023/04/30 04:11:58;;;;;;;7.20;6.63;;;;;;;;;;5070699;28;20415;-83
2023/04/30 04:14:24;;;;;;;7.82;7.22;;;;;;;;;;5070621;28;20372;-83
2023/04/30 04:16:50;;;;;;;7.38;6.78;;;;;;;;;;5069975;28;20383;-83
2023/04/30 04:19:16;;;;;;;7.45;6.90;;;;;;;;;;5069562;28;20384;-84
2023/04/30 04:21:42;;;;;;;8.20;7.40;;;;;;;;;;5069882;28;20462;-83
2023/04/30 04:24:09;;;;;;;8.97;8.30;;;;;;;;;;5069801;28;20475;-82
2023/04/30 04:26:35;;;;;;;7.90;7.30;;;;;;;;;;5069955;28;20404;-82
2023/04/30 04:29:03;;;;;;;7.38;6.88;;;;;;;;;;5069811;28;20781;-82
2023/04/30 04:31:29;;;;;;;8.18;7.57;;;;;;;;;;5070270;28;20756;-82
2023/04/30 04:33:57;;;;;;;8.05;7.45;;;;;;;;;;5068992;28;20376;-83
2023/04/30 04:36:27;;;;;;;8.60;7.95;;;;;;;;;;5069466;28;20895;-83
2023/04/30 04:38:53;;;;;;;8.98;8.27;;;;;;;;;;5069237;28;20372;-83
2023/04/30 04:41:19;;;;;;;8.13;7.53;;;;;;;;;;5069474;28;20995;-83
2023/04/30 04:43:45;;;;;;;8.15;7.43;;;;;;;;;;5069003;28;20440;-83
2023/04/30 04:46:15;;;;;;;8.32;7.72;;;;;;;;;;5069406;28;20441;-83
2023/04/30 04:48:41;;;;;;;8.27;7.45;;;;;;;;;;5069120;28;20868;-84
2023/04/30 04:51:07;;;;;;;7.97;7.38;;;;;;;;;;5060011;28;20411;-82
2023/04/30 04:53:33;;;;;;;8.10;7.40;;;;;;;;;;5072808;28;20382;-83
2023/04/30 04:55:59;;;;;;;7.93;7.32;;;;;;;;;;5072530;28;20376;-83
2023/04/30 04:58:25;;;;;;;7.85;7.25;;;;;;;;;;5069848;28;20380;-83
2023/04/30 05:00:52;;;;;;;8.10;7.40;;;;;;;;;;5072487;28;20764;-84
2023/04/30 05:03:19;;;;;;;8.20;7.60;;;;;;;;;;5072757;28;20388;-84
2023/04/30 05:05:45;;;;;;;8.70;8.02;;;;;;;;;;5064647;28;20388;-84
2023/04/30 05:08:12;;;;;;;9.35;8.65;;;;;;;;;;5071351;28;20383;-82
2023/04/30 05:10:38;;;;;;;9.48;8.77;;;;;;;;;;5072123;28;20442;-83
2023/04/30 05:13:04;;;;;;;9.88;9.07;;;;;;;;;;5072510;28;20376;-82
2023/04/30 05:15:30;;;;;;;10.40;9.60;;;;;;;;;;5072410;28;20376;-83
2023/04/30 05:17:56;;;;;;;9.47;8.77;;;;;;;;;;5071686;28;20782;-83
2023/04/30 05:20:22;;;;;;;10.63;9.73;;;;;;;;;;5070812;28;20384;-84
2023/04/30 05:22:48;;;;;;;10.60;9.70;;;;;;;;;;5072283;28;20433;-84
2023/04/30 05:25:14;;;;;;;10.82;9.98;;;;;;;;;;5070973;28;20379;-84
2023/04/30 05:27:40;;;;;;;11.45;10.55;;;;;;;;;;5070890;28;20865;-84
2023/04/30 05:30:08;;;;;;;10.90;10.00;;;;;;;;;;5069573;28;20924;-83
2023/04/30 05:32:34;;;;;;;10.18;9.35;;;;;;;;;;5072088;28;20498;-84
2023/04/30 05:35:00;;;;;;;10.70;9.90;;;;;;;;;;5067210;28;20877;-84
2023/04/30 05:37:26;;;;;;;11.40;10.50;;;;;;;;;;5071684;28;20384;-84
2023/04/30 05:39:52;;;;;;;10.90;10.10;;;;;;;;;;5071869;28;20388;-83
2023/04/30 05:42:19;;;;;;;11.32;10.43;;;;;;;;;;5071799;28;20384;-84
2023/04/30 05:44:45;;;;;;;11.27;10.38;;;;;;;;;;5071987;28;20387;-84
2023/04/30 05:47:11;;;;;;;10.85;10.05;;;;;;;;;;5071850;28;20376;-82
2023/04/30 05:49:37;;;;;;;10.55;9.75;;;;;;;;;;5071950;28;20416;-82
2023/04/30 05:52:03;;;;;;;10.68;9.88;;;;;;;;;;5072170;28;20399;-83
2023/04/30 05:54:29;;;;;;;11.10;10.30;;;;;;;;;;5071373;28;20540;-82
2023/04/30 05:56:55;;;;;;;10.27;9.48;;;;;;;;;;5071343;28;20379;-82
2023/04/30 05:59:21;;;;;;;10.43;9.63;;;;;;;;;;5071443;28;20921;-83
2023/04/30 06:01:47;;;;;;;10.25;9.55;;;;;;;;;;5070351;28;20474;-82
2023/04/30 06:04:14;;;;;;;10.25;9.35;;;;;;;;;;5071003;28;20478;-82
2023/04/30 06:06:40;;;;;;;9.68;8.98;;;;;;;;;;5071026;28;20391;-82
2023/04/30 06:09:05;;;;;;;10.20;9.47;;;;;;;;;;5068517;28;20437;-82
2023/04/30 06:11:31;;;;;;;11.10;10.30;;;;;;;;;;5072283;28;20454;-82
2023/04/30 06:13:58;;;;;;;10.40;9.70;;;;;;;;;;5070721;28;20382;-83
2023/04/30 06:16:24;;;;;;;10.60;9.70;;;;;;;;;;5068808;28;20395;-81
2023/04/30 06:18:50;;;;;;;11.68;10.70;;;;;;;;;;5071185;28;20391;-83
2023/04/30 06:21:16;;;;;;;11.77;10.88;;;;;;;;;;5071905;28;20470;-83
2023/04/30 06:23:42;;;;;;;10.65;9.75;;;;;;;;;;5071018;28;20858;-84
2023/04/30 06:26:08;;;;;;;9.70;9.00;;;;;;;;;;5070357;28;20411;-83
2023/04/30 06:28:34;;;;;;;9.98;9.27;;;;;;;;;;5069926;28;20419;-86
2023/04/30 06:31:00;;;;;;;9.90;9.10;;;;;;;;;;5072122;28;20742;-84
2023/04/30 06:33:26;;;;;;;9.15;8.45;;;;;;;;;;5069420;28;20394;-85
2023/04/30 06:35:54;;;;;;;9.20;8.50;;;;;;;;;;5071708;28;20394;-85
2023/04/30 06:38:20;;;;;;;9.77;8.98;;;;;;;;;;5071573;28;20372;-85
2023/04/30 06:40:46;;;;;;;9.43;8.63;;;;;;;;;;5071740;28;20386;-88
2023/04/30 06:43:12;;;;;;;9.23;8.48;;;;;;;;;;5071551;28;20388;-83
2023/04/30 06:45:38;;;;;;;9.02;8.23;;;;;;;;;;5071261;28;20905;-81
2023/04/30 06:48:04;;;;;;;8.77;8.18;;;;;;;;;;5071874;28;20940;-83
2023/04/30 06:50:30;;;;;;;8.80;8.05;;;;;;;;;;5071632;28;20408;-83
2023/04/30 06:52:56;;;;;;;8.57;7.78;;;;;;;;;;5069837;28;20396;-84
2023/04/30 06:55:23;;;;;;;8.40;7.78;;;;;;;;;;5071295;28;20842;-84
2023/04/30 06:57:49;;;;;;;8.20;7.60;;;;;;;;;;5071551;28;20429;-85
2023/04/30 07:00:15;;;;;;;8.65;7.95;;;;;;;;;;5070959;28;20384;-85
2023/04/30 07:02:41;;;;;;;9.07;8.38;;;;;;;;;;5069247;28;20388;-85
2023/04/30 07:05:08;;;;;;;8.32;7.72;;;;;;;;;;5070147;28;20388;-82
2023/04/30 07:07:34;;;;;;;9.02;8.30;;;;;;;;;;5070632;28;20459;-83
2023/04/30 07:10:00;;;;;;;9.30;8.60;;;;;;;;;;5069305;28;20892;-87
2023/04/30 07:12:26;;;;;;;9.15;8.45;;;;;;;;;;5069840;28;20388;-83
2023/04/30 07:14:52;;;;;;;9.55;8.85;;;;;;;;;;5068917;28;20497;-84
2023/04/30 07:17:18;;;;;;;9.90;9.10;;;;;;;;;;5070696;28;20929;-84
2023/04/30 07:19:44;;;;;;;8.98;8.27;;;;;;;;;;5069039;28;20817;-83
2023/04/30 07:22:10;;;;;;;9.00;8.30;;;;;;;;;;5069226;28;20416;-83
2023/04/30 07:24:36;;;;;;;8.93;8.18;;;;;;;;;;5070103;28;20391;-83
2023/04/30 07:27:02;;;;;;;9.87;9.00;;;;;;;;;;5069935;28;20443;-83
2023/04/30 07:29:29;;;;;;;9.20;8.40;;;;;;;;;;5063561;28;20376;-84
2023/04/30 07:31:57;;;;;;;8.20;7.60;;;;;;;;;;5070231;28;20404;-83
2023/04/30 07:34:23;;;;;;;8.60;7.90;;;;;;;;;;5068201;28;20426;-83
2023/04/30 07:36:49;;;;;;;8.63;7.93;;;;;;;;;;5070836;28;20368;-83
2023/04/30 07:39:16;;;;;;;8.20;7.60;;;;;;;;;;5070581;28;20371;-83
2023/04/30 07:41:42;;;;;;;8.60;7.90;;;;;;;;;;5070661;28;20787;-83
2023/04/30 07:44:10;;;;;;;8.65;8.02;;;;;;;;;;5070925;28;20380;-84
2023/04/30 07:46:36;;;;;;;9.00;8.30;;;;;;;;;;5070999;28;20384;-84
2023/04/30 07:49:02;;;;;;;8.73;8.10;;;;;;;;;;5070847;28;20791;-84
2023/04/30 07:51:29;;;;;;;8.27;7.68;;;;;;;;;;5070752;28;20404;-84
2023/04/30 07:53:55;;;;;;;7.00;6.40;;;;;;;;;;5070515;28;20878;-84
2023/04/30 07:56:21;;;;;;;7.78;7.18;;;;;;;;;;5070174;28;20395;-84
2023/04/30 07:58:47;;;;;;;6.28;5.78;;;;;;;;;;5070552;28;20390;-84
2023/04/30 08:01:13;;;;;;;6.53;6.03;;;;;;;;;;5070663;28;20384;-84
2023/04/30 08:03:39;;;;;;;6.15;5.75;;;;;;;;;;5070355;28;20380;-83
2023/04/30 08:06:06;;;;;;;6.70;6.20;;;;;;;;;;5070748;28;20524;-85
2023/04/30 08:08:32;;;;;;;6.45;5.97;;;;;;;;;;5066008;28;20392;-84
2023/04/30 08:10:58;;;;;;;7.53;6.93;;;;;;;;;;5070687;28;20533;-83
2023/04/30 08:13:24;;;;;;;6.47;5.97;;;;;;;;;;5069516;28;20467;-84
2023/04/30 08:15:50;;;;;;;6.30;5.90;;;;;;;;;;5070741;28;20380;-84
2023/04/30 08:18:16;;;;;;;6.63;6.03;;;;;;;;;;5070180;28;20383;-83
2023/04/30 08:20:42;;;;;;;6.80;6.20;;;;;;;;;;5070798;28;20437;-84
2023/04/30 08:23:08;;;;;;;6.25;5.85;;;;;;;;;;5068152;28;20482;-87
2023/04/30 08:25:35;;;;;;;6.00;5.60;;;;;;;;;;5071449;28;20491;-87
2023/04/30 08:28:01;;;;;;;5.80;5.40;;;;;;;;;;5073105;28;20385;-87
2023/04/30 08:30:27;;;;;;;5.60;5.10;;;;;;;;;;5073698;28;20506;-85
2023/04/30 08:32:53;;;;;;;5.15;4.75;;;;;;;;;;5074630;28;20384;-85
2023/04/30 08:35:19;;;;;;;5.00;4.60;;;;;;;;;;5074125;28;20781;-88
2023/04/30 08:37:45;;;;;;;5.10;4.80;;;;;;;;;;5073469;28;20379;-85
2023/04/30 08:40:12;;;;;;;5.55;5.15;;;;;;;;;;5073364;28;20383;-84
2023/04/30 08:42:42;;;;;;;4.95;4.60;;;;;;;;;;5073595;28;20460;-85
2023/04/30 08:45:08;;;;;;;4.85;4.55;;;;;;;;;;5073726;28;20737;-87
2023/04/30 08:47:35;;;;;;;5.38;4.88;;;;;;;;;;5074040;28;20491;-85
2023/04/30 08:50:01;;;;;;;4.78;4.40;;;;;;;;;;5074014;28;20387;-88
2023/04/30 08:52:28;;;;;;;5.40;5.00;;;;;;;;;;5074054;28;20386;-84
2023/04/30 08:54:54;;;;;;;6.13;5.53;;;;;;;;;;5073326;28;20907;-84
2023/04/30 08:57:20;;;;;;;5.93;5.53;;;;;;;;;;5073143;28;20816;-83
2023/04/30 08:59:46;;;;;;;5.70;5.30;;;;;;;;;;5073578;28;20415;-83
2023/04/30 09:02:13;;;;;;;5.57;5.17;;;;;;;;;;5072523;28;20376;-84
2023/04/30 09:04:39;;;;;;;5.20;4.80;;;;;;;;;;5072601;28;20379;-86
2023/04/30 09:07:05;;;;;;;5.70;5.30;;;;;;;;;;5072607;28;20444;-84
2023/04/30 09:09:37;;;;;;;5.22;4.90;;;;;;;;;;5072567;28;20403;-84
2023/04/30 09:12:17;;;;;;;4.82;4.43;;;;;;;;;;5071925;28;20395;-85
2023/04/30 09:14:58;;;;;;;4.85;4.50;;;;;;;;;;5073642;28;20419;-84
2023/04/30 09:17:25;;;;;;;5.07;4.68;;;;;;;;;;5073668;28;20375;-84
2023/04/30 09:19:51;;;;;;;4.78;4.43;;;;;;;;;;5072279;28;20873;-84
2023/04/30 09:22:22;;;;;;;4.30;4.00;;;;;;;;;;5072743;28;20417;-84
2023/04/30 09:24:49;;;;;;;4.20;3.90;;;;;;;;;;5071259;28;20416;-84
2023/04/30 09:27:16;;;;;;;4.30;3.90;;;;;;;;;;5072668;28;20404;-84
2023/04/30 09:29:42;;;;;;;4.13;3.83;;;;;;;;;;5072224;28;20404;-85
2023/04/30 09:32:08;;;;;;;4.13;3.83;;;;;;;;;;5072281;28;20403;-85
2023/04/30 09:34:35;;;;;;;3.90;3.60;;;;;;;;;;5070609;28;20392;-84
2023/04/30 09:37:01;;;;;;;3.95;3.65;;;;;;;;;;5071693;28;20376;-84
2023/04/30 09:39:26;;;;;;;4.00;3.70;;;;;;;;;;5072695;28;20865;-84
2023/04/30 09:41:52;;;;;;;3.58;3.38;;;;;;;;;;5072692;28;20379;-84
2023/04/30 09:44:28;;;;;;;3.80;3.50;;;;;;;;;;5071734;28;20774;-85
2023/04/30 09:46:56;;;;;;;3.90;3.60;;;;;;;;;;5071059;28;20376;-84
2023/04/30 09:49:22;;;;;;;3.53;3.20;;;;;;;;;;5071257;28;20897;-85
2023/04/30 09:51:55;;;;;;;3.58;3.38;;;;;;;;;;5072340;28;20557;-85
2023/04/30 09:54:23;;;;;;;3.38;3.08;;;;;;;;;;5071830;28;20387;-85
2023/04/30 09:56:50;;;;;;;3.67;3.38;;;;;;;;;;5071098;28;20376;-85
2023/04/30 09:59:18;;;;;;;3.10;2.90;;;;;;;;;;5072265;28;20379;-85
2023/04/30 10:01:45;;;;;;;3.85;3.40;;;;;;;;;;5071829;28;20402;-85
2023/04/30 10:04:11;;;;;;;3.38;3.08;;;;;;;;;;5072767;28;20451;-86
2023/04/30 10:06:37;;;;;;;4.38;3.40;;;;;;;;;;5071932;28;20491;-85
2023/04/30 10:09:06;;;;;;;3.20;2.90;;;;;;;;;;5072211;28;20383;-84
2023/04/30 10:11:34;;;;;;;3.40;3.20;;;;;;;;;;5072599;28;20469;-86
2023/04/30 10:14:02;;;;;;;3.30;3.10;;;;;;;;;;5071485;28;20384;-84
2023/04/30 10:16:47;;;;;;;2.97;2.75;;;;;;;;;;5071632;28;20394;-84
2023/04/30 10:19:14;;;;;;;3.00;2.80;;;;;;;;;;5072582;28;20375;-85
2023/04/30 10:21:42;;;;;;;2.80;2.60;;;;;;;;;;5072186;28;20403;-85
2023/04/30 10:24:12;;;;;;;3.03;2.83;;;;;;;;;;5070835;28;20384;-85
2023/04/30 10:26:38;;;;;;;3.00;2.80;;;;;;;;;;5071213;28;20391;-86
2023/04/30 10:29:05;;;;;;;3.00;2.70;;;;;;;;;;5071617;28;20380;-85
2023/04/30 10:31:31;;;;;;;2.78;2.50;;;;;;;;;;5071574;28;20411;-84
2023/04/30 10:34:03;;;;;;;2.50;2.30;;;;;;;;;;5072112;28;20433;-86
2023/04/30 10:36:33;;;;;;;2.50;2.30;;;;;;;;;;5072040;28;20406;-86
2023/04/30 10:38:59;;;;;;;2.70;2.50;;;;;;;;;;5071872;28;20422;-85
2023/04/30 10:41:28;;;;;;;2.78;2.58;;;;;;;;;;5069543;28;20384;-86
2023/04/30 10:44:00;;;;;;;2.60;2.40;;;;;;;;;;5069922;28;20412;-86
2023/04/30 10:46:28;;;;;;;1.97;1.87;;;;;;;;;;5071088;28;20495;-86
2023/04/30 10:48:54;;;;;;;2.45;2.25;;;;;;;;;;5071392;28;20792;-83
2023/04/30 10:51:21;;;;;;;2.35;2.15;;;;;;;;;;5071409;28;20411;-86
2023/04/30 10:53:50;;;;;;;2.43;2.23;;;;;;;;;;5071749;28;20403;-85
2023/04/30 10:56:29;;;;;;;2.33;2.13;;;;;;;;;;5071713;28;20380;-84
2023/04/30 10:58:59;;;;;;;2.70;2.50;;;;;;;;;;5071756;28;20422;-84
2023/04/30 11:01:25;;;;;;;2.63;2.42;;;;;;;;;;5071100;28;20454;-82
2023/04/30 11:04:05;;;;;;;2.40;2.20;;;;;;;;;;5070891;28;20422;-83
2023/04/30 11:07:02;;;;;;;2.75;2.10;;;;;;;;;;5063113;28;20457;-86
2023/04/30 11:09:39;;;;;;;2.00;1.90;;;;;;;;;;5047013;28;20796;-85
2023/04/30 11:12:12;;;;;;;2.10;2.00;;;;;;;;;;5071376;28;20484;-86
2023/04/30 11:14:42;;;;;;;1.90;1.80;;;;;;;;;;5071463;28;20376;-85
2023/04/30 11:17:09;;;;;;;2.00;1.90;;;;;;;;;;5071026;28;20380;-85
2023/04/30 11:19:35;;;;;;;2.15;1.95;;;;;;;;;;5071988;28;20388;-85
2023/04/30 11:22:05;;;;;;;2.10;1.92;;;;;;;;;;5070907;28;20396;-86
2023/04/30 11:25:00;;;;;;;2.63;2.07;;;;;;;;;;5070455;28;20950;-86
2023/04/30 11:27:27;;;;;;;2.30;2.20;;;;;;;;;;5050067;28;20465;-85
2023/04/30 11:29:54;;;;;;;2.03;1.90;;;;;;;;;;5071228;28;20392;-86
2023/04/30 11:32:20;;;;;;;2.10;2.00;;;;;;;;;;5071228;28;20410;-87
2023/04/30 11:34:47;;;;;;;1.92;1.77;;;;;;;;;;5069800;28;20376;-86
2023/04/30 11:37:15;;;;;;;2.17;1.92;;;;;;;;;;5069776;28;20380;-85
2023/04/30 11:39:42;;;;;;;2.08;1.98;;;;;;;;;;5070752;28;20387;-86
2023/04/30 11:42:08;;;;;;;2.05;1.85;;;;;;;;;;5066293;28;20377;-86
2023/04/30 11:44:35;;;;;;;1.95;1.85;;;;;;;;;;5071067;28;20399;-86
2023/04/30 11:47:01;;;;;;;1.80;1.70;;;;;;;;;;5070803;28;20408;-86
2023/04/30 11:49:27;;;;;;;2.42;2.17;;;;;;;;;;5070768;28;20714;-87
2023/04/30 11:51:53;;;;;;;2.38;2.17;;;;;;;;;;5067930;28;20831;-86
2023/04/30 11:54:19;;;;;;;2.30;2.10;;;;;;;;;;5066193;28;20376;-86
2023/04/30 11:56:49;;;;;;;1.70;1.60;;;;;;;;;;5069582;28;20418;-87
2023/04/30 11:59:16;;;;;;;2.20;2.00;;;;;;;;;;5072705;28;20376;-87
2023/04/30 12:01:42;;;;;;;2.22;2.13;;;;;;;;;;5074962;28;20391;-87
2023/04/30 12:04:08;;;;;;;2.20;2.10;;;;;;;;;;5075040;28;20380;-86
2023/04/30 12:06:35;;;;;;;3.60;2.03;;;;;;;;;;5073533;28;20396;-86
2023/04/30 12:09:07;;;;;;;3.03;2.33;;;;;;;;;;5073395;28;20391;-87
2023/04/30 12:11:34;;;;;;;1.90;1.80;;;;;;;;;;5073587;28;20423;-87
2023/04/30 12:14:06;;;;;;;2.58;2.38;;;;;;;;;;5074872;28;20386;-86
2023/04/30 12:16:39;;;;;;;2.10;1.90;;;;;;;;;;5074773;28;20852;-88
2023/04/30 12:19:05;;;;;;;2.33;2.10;;;;;;;;;;5074704;28;20380;-87
2023/04/30 12:21:31;;;;;;;2.50;2.30;;;;;;;;;;5074713;28;20384;-88
2023/04/30 12:23:58;;;;;;;2.08;1.98;;;;;;;;;;5074603;28;20390;-87
2023/04/30 12:26:24;;;;;;;2.10;2.00;;;;;;;;;;5073200;28;20540;-86
2023/04/30 12:28:52;;;;;;;2.10;1.73;;;;;;;;;;5073287;28;20410;-88
2023/04/30 12:31:18;;;;;;;2.47;2.10;;;;;;;;;;5073252;28;20448;-87
2023/04/30 12:33:52;;;;;;;1.92;1.80;;;;;;;;;;5074399;28;20372;-87
2023/04/30 12:36:18;;;;;;;2.60;1.80;;;;;;;;;;5074447;28;20375;-87
2023/04/30 12:38:46;;;;;;;2.00;1.80;;;;;;;;;;5074302;28;20857;-86
2023/04/30 12:41:16;;;;;;;1.50;1.40;;;;;;;;;;5073381;28;20383;-87
2023/04/30 12:43:42;;;;;;;2.35;1.80;;;;;;;;;;5074484;28;20375;-86
2023/04/30 12:46:08;;;;;;;2.30;2.10;;;;;;;;;;5072978;28;20384;-86
2023/04/30 12:48:43;;;;;;;2.33;2.05;;;;;;;;;;5074294;28;20887;-86
2023/04/30 12:51:10;;;;;;;2.00;1.90;;;;;;;;;;5072893;28;20830;-88
2023/04/30 12:53:44;;;;;;;1.88;1.77;;;;;;;;;;5072855;28;20376;-86
2023/04/30 12:56:11;;;;;;;2.10;2.00;;;;;;;;;;5074009;28;20391;-87
2023/04/30 12:58:38;;;;;;;2.10;2.00;;;;;;;;;;5060997;28;20404;-86
2023/04/30 13:01:04;;;;;;;2.28;2.10;;;;;;;;;;5071894;28;20384;-86
2023/04/30 13:03:30;;;;;;;1.92;1.80;;;;;;;;;;5073966;28;20787;-86
2023/04/30 13:05:57;;;;;;;2.35;2.20;;;;;;;;;;5073708;28;20517;-87
2023/04/30 13:08:23;;;;;;;2.13;1.92;;;;;;;;;;5074004;28;20418;-87
2023/04/30 13:10:50;;;;;;;1.83;1.73;;;;;;;;;;5073040;28;20407;-86
2023/04/30 13:13:19;;;;;;;2.20;1.90;;;;;;;;;;5073848;28;20409;-86
2023/04/30 13:15:45;;;;;;;1.85;1.75;;;;;;;;;;5072409;28;20388;-86
2023/04/30 13:18:11;;;;;;;2.00;1.90;;;;;;;;;;5073663;28;20392;-86
2023/04/30 13:20:37;;;;;;;3.22;2.17;;;;;;;;;;5073623;28;20472;-86
2023/04/30 13:23:03;;;;;;;1.73;1.63;;;;;;;;;;5073541;28;20375;-86
2023/04/30 13:25:30;;;;;;;2.00;1.90;;;;;;;;;;5073508;28;20761;-87
2023/04/30 13:27:56;;;;;;;2.00;1.90;;;;;;;;;;5073467;28;20382;-87
2023/04/30 13:30:23;;;;;;;2.10;1.90;;;;;;;;;;5073514;28;20968;-87
2023/04/30 13:32:49;;;;;;;1.83;1.55;;;;;;;;;;5073564;28;20376;-87
2023/04/30 13:35:15;;;;;;;1.70;1.60;;;;;;;;;;5068082;28;20385;-87
2023/04/30 13:37:41;;;;;;;1.88;1.77;;;;;;;;;;5073377;28;20383;-86
2023/04/30 13:40:08;;;;;;;1.80;1.40;;;;;;;;;;5073380;28;20379;-86
2023/04/30 13:42:34;;;;;;;1.85;1.75;;;;;;;;;;5073150;28;20853;-86
2023/04/30 13:45:00;;;;;;;2.33;1.58;;;;;;;;;;5072917;28;20904;-86
2023/04/30 13:47:26;;;;;;;5.25;1.50;;;;;;;;;;5073087;28;20384;-87
2023/04/30 13:49:52;;;;;;;1.50;1.40;;;;;;;;;;5073201;28;20472;-86
2023/04/30 13:52:18;;;;;;;1.70;1.60;;;;;;;;;;5072946;28;20403;-87
2023/04/30 13:54:44;;;;;;;1.70;1.50;;;;;;;;;;5072757;28;20383;-86
2023/04/30 13:57:10;;;;;;;2.35;1.60;;;;;;;;;;5073048;28;20371;-86
2023/04/30 13:59:37;;;;;;;2.23;1.83;;;;;;;;;;5072828;28;20464;-85
2023/04/30 14:02:03;;;;;;;1.97;1.87;;;;;;;;;;5072946;28;20380;-86
2023/04/30 14:04:30;;;;;;;1.73;1.60;;;;;;;;;;5072236;28;20895;-86
2023/04/30 14:06:56;;;;;;;1.83;1.73;;;;;;;;;;5072670;28;20383;-85
2023/04/30 14:09:22;;;;;;;1.70;1.60;;;;;;;;;;5072655;28;20428;-86
2023/04/30 14:11:48;;;;;;;2.00;1.70;;;;;;;;;;5072775;28;20400;-85
2023/04/30 14:14:14;;;;;;;1.42;1.33;;;;;;;;;;5072590;28;20380;-85
2023/04/30 14:16:41;;;;;;;2.13;1.92;;;;;;;;;;5072562;28;21105;-86
2023/04/30 14:19:07;;;;;;;1.80;1.70;;;;;;;;;;5072562;28;20463;-86
2023/04/30 14:21:33;;;;;;;2.17;1.98;;;;;;;;;;5072240;28;20471;-86
2023/04/30 14:23:59;;;;;;;1.70;1.40;;;;;;;;;;5072502;28;20450;-86
2023/04/30 14:26:25;;;;;;;1.90;1.80;;;;;;;;;;5071995;28;20406;-86
2023/04/30 14:28:51;;;;;;;2.00;1.80;;;;;;;;;;5072329;28;20801;-85
2023/04/30 14:31:17;;;;;;;1.52;1.42;;;;;;;;;;5070735;28;20499;-87
2023/04/30 14:33:44;;;;;;;1.90;1.80;;;;;;;;;;5072263;28;20376;-87
2023/04/30 14:36:10;;;;;;;2.05;1.95;;;;;;;;;;5072436;28;20780;-87
2023/04/30 14:38:36;;;;;;;2.20;1.60;;;;;;;;;;5072047;28;20379;-86
2023/04/30 14:41:02;;;;;;;1.92;1.83;;;;;;;;;;5072154;28;20415;-87